SAWU/RZA METAR and TAF weather

Enter ICAO airport designator
Station Type Date Time Source
SAWU METAR 2019/04/18 18:00 UTC NOAA

SAWU 181800Z 23030G40KT 9999 -RA BKN030 BKN058 OVC200 12/02 Q1000


Station Type Date Time Source
SAWU Decoded METAR 2019/04/18 18:00 UTC NOAA

Santa Cruz Aerodrome, Argentina (SAWU) 50-01S 068-34W 111M
Apr 18, 2019 - 02:00 PM EDT / 2019.04.18 1800 UTC
Wind: from the SW (230 degrees) at 35 MPH (30 KT) gusting to 46 MPH (40 KT):0
Visibility: greater than 7 mile(s):0
Sky conditions: overcast
Weather: light rain
Temperature: 53 F (12 C)
Dew Point: 35 F (2 C)
Relative Humidity: 50%
Pressure (altimeter): 29.53 in. Hg (1000 hPa)
ob: SAWU 181800Z 23030G40KT 9999 -RA BKN030 BKN058 OVC200 12/02 Q1000
cycle: 18

Station Type Date Time Source
SAWU TAF UTC NOAA

Error!

Example: see airport list